sensor_id;sensor_type;location;lat;lon;timestamp;P1;durP1;ratioP1;P2;durP2;ratioP2
77078;SDS011;66004;55.096;38.760;2023-02-11T00:01:08;17.08;;;6.60;;
77078;SDS011;66004;55.096;38.760;2023-02-11T00:03:35;19.13;;;7.30;;
77078;SDS011;66004;55.096;38.760;2023-02-11T00:06:02;18.75;;;7.80;;
77078;SDS011;66004;55.096;38.760;2023-02-11T00:08:30;13.15;;;5.05;;
77078;SDS011;66004;55.096;38.760;2023-02-11T00:10:56;19.70;;;7.60;;
77078;SDS011;66004;55.096;38.760;2023-02-11T00:13:22;17.58;;;6.90;;
77078;SDS011;66004;55.096;38.760;2023-02-11T00:15:48;14.35;;;6.20;;
77078;SDS011;66004;55.096;38.760;2023-02-11T00:18:14;13.93;;;6.18;;
77078;SDS011;66004;55.096;38.760;2023-02-11T00:20:40;15.32;;;6.60;;
77078;SDS011;66004;55.096;38.760;2023-02-11T00:23:06;17.80;;;6.35;;
77078;SDS011;66004;55.096;38.760;2023-02-11T00:25:32;14.65;;;7.25;;
77078;SDS011;66004;55.096;38.760;2023-02-11T00:27:57;17.05;;;6.10;;
77078;SDS011;66004;55.096;38.760;2023-02-11T00:30:23;18.52;;;5.65;;
77078;SDS011;66004;55.096;38.760;2023-02-11T00:32:49;20.30;;;7.15;;
77078;SDS011;66004;55.096;38.760;2023-02-11T00:35:14;16.60;;;6.65;;
77078;SDS011;66004;55.096;38.760;2023-02-11T00:37:40;18.10;;;7.97;;
77078;SDS011;66004;55.096;38.760;2023-02-11T00:40:05;22.05;;;6.55;;
77078;SDS011;66004;55.096;38.760;2023-02-11T00:42:31;12.90;;;5.63;;
77078;SDS011;66004;55.096;38.760;2023-02-11T00:44:57;11.93;;;4.75;;
77078;SDS011;66004;55.096;38.760;2023-02-11T00:47:22;14.75;;;6.32;;
77078;SDS011;66004;55.096;38.760;2023-02-11T00:49:48;17.65;;;6.97;;
77078;SDS011;66004;55.096;38.760;2023-02-11T00:52:13;16.95;;;6.97;;
77078;SDS011;66004;55.096;38.760;2023-02-11T00:54:39;14.20;;;5.65;;
77078;SDS011;66004;55.096;38.760;2023-02-11T00:57:05;22.67;;;7.25;;
77078;SDS011;66004;55.096;38.760;2023-02-11T00:59:30;17.42;;;6.97;;
77078;SDS011;66004;55.096;38.760;2023-02-11T01:01:56;12.88;;;5.25;;
77078;SDS011;66004;55.096;38.760;2023-02-11T01:04:21;15.23;;;6.53;;
77078;SDS011;66004;55.096;38.760;2023-02-11T01:06:47;10.98;;;5.65;;
77078;SDS011;66004;55.096;38.760;2023-02-11T01:09:12;17.00;;;6.90;;
77078;SDS011;66004;55.096;38.760;2023-02-11T01:11:38;16.23;;;6.00;;
77078;SDS011;66004;55.096;38.760;2023-02-11T01:14:03;17.48;;;6.95;;
77078;SDS011;66004;55.096;38.760;2023-02-11T01:16:29;13.10;;;6.50;;
77078;SDS011;66004;55.096;38.760;2023-02-11T01:18:55;13.95;;;6.88;;
77078;SDS011;66004;55.096;38.760;2023-02-11T01:21:20;15.32;;;6.88;;
77078;SDS011;66004;55.096;38.760;2023-02-11T01:23:46;14.32;;;5.72;;
77078;SDS011;66004;55.096;38.760;2023-02-11T01:26:11;12.43;;;5.15;;
77078;SDS011;66004;55.096;38.760;2023-02-11T01:28:37;12.32;;;4.97;;
77078;SDS011;66004;55.096;38.760;2023-02-11T01:31:03;13.70;;;6.30;;
77078;SDS011;66004;55.096;38.760;2023-02-11T01:33:28;16.65;;;6.05;;
77078;SDS011;66004;55.096;38.760;2023-02-11T01:35:54;16.15;;;6.97;;
77078;SDS011;66004;55.096;38.760;2023-02-11T01:38:21;21.35;;;8.90;;
77078;SDS011;66004;55.096;38.760;2023-02-11T01:40:51;23.10;;;9.55;;
77078;SDS011;66004;55.096;38.760;2023-02-11T01:43:26;29.58;;;9.70;;
77078;SDS011;66004;55.096;38.760;2023-02-11T01:46:12;16.60;;;7.15;;
77078;SDS011;66004;55.096;38.760;2023-02-11T01:48:49;11.18;;;4.85;;
77078;SDS011;66004;55.096;38.760;2023-02-11T01:53:50;14.77;;;4.53;;
77078;SDS011;66004;55.096;38.760;2023-02-11T01:56:37;15.35;;;5.32;;
77078;SDS011;66004;55.096;38.760;2023-02-11T01:59:32;10.90;;;5.20;;
77078;SDS011;66004;55.096;38.760;2023-02-11T02:02:05;15.77;;;6.43;;
77078;SDS011;66004;55.096;38.760;2023-02-11T02:04:41;13.00;;;5.35;;
77078;SDS011;66004;55.096;38.760;2023-02-11T02:07:17;9.38;;;3.83;;
77078;SDS011;66004;55.096;38.760;2023-02-11T02:09:54;13.30;;;5.07;;
77078;SDS011;66004;55.096;38.760;2023-02-11T02:15:07;16.92;;;4.60;;
77078;SDS011;66004;55.096;38.760;2023-02-11T02:17:44;17.27;;;4.43;;
77078;SDS011;66004;55.096;38.760;2023-02-11T02:23:28;9.85;;;3.90;;
77078;SDS011;66004;55.096;38.760;2023-02-11T02:26:05;12.50;;;4.78;;
77078;SDS011;66004;55.096;38.760;2023-02-11T02:34:29;11.38;;;5.47;;
77078;SDS011;66004;55.096;38.760;2023-02-11T02:40:17;14.30;;;6.05;;
77078;SDS011;66004;55.096;38.760;2023-02-11T02:42:47;14.10;;;4.68;;
77078;SDS011;66004;55.096;38.760;2023-02-11T02:45:15;13.95;;;4.63;;
77078;SDS011;66004;55.096;38.760;2023-02-11T02:47:40;17.95;;;6.32;;
77078;SDS011;66004;55.096;38.760;2023-02-11T02:53:25;13.75;;;4.88;;
77078;SDS011;66004;55.096;38.760;2023-02-11T03:02:07;12.90;;;4.32;;
77078;SDS011;66004;55.096;38.760;2023-02-11T03:07:21;13.68;;;4.90;;
77078;SDS011;66004;55.096;38.760;2023-02-11T03:09:55;12.25;;;4.57;;
77078;SDS011;66004;55.096;38.760;2023-02-11T03:12:26;11.07;;;3.83;;
77078;SDS011;66004;55.096;38.760;2023-02-11T03:14:55;11.00;;;4.72;;
77078;SDS011;66004;55.096;38.760;2023-02-11T03:17:20;8.23;;;4.22;;
77078;SDS011;66004;55.096;38.760;2023-02-11T03:19:49;10.20;;;4.35;;
77078;SDS011;66004;55.096;38.760;2023-02-11T03:24:44;12.55;;;4.45;;
77078;SDS011;66004;55.096;38.760;2023-02-11T03:32:40;10.38;;;4.72;;
77078;SDS011;66004;55.096;38.760;2023-02-11T03:37:50;8.60;;;3.50;;
77078;SDS011;66004;55.096;38.760;2023-02-11T03:40:26;9.27;;;3.20;;
77078;SDS011;66004;55.096;38.760;2023-02-11T03:42:57;14.75;;;3.67;;
77078;SDS011;66004;55.096;38.760;2023-02-11T03:45:23;9.25;;;3.78;;
77078;SDS011;66004;55.096;38.760;2023-02-11T03:47:55;17.92;;;3.45;;
77078;SDS011;66004;55.096;38.760;2023-02-11T03:50:24;11.65;;;4.03;;
77078;SDS011;66004;55.096;38.760;2023-02-11T03:52:52;11.90;;;4.68;;
77078;SDS011;66004;55.096;38.760;2023-02-11T03:55:20;12.48;;;3.20;;
77078;SDS011;66004;55.096;38.760;2023-02-11T03:57:49;10.35;;;4.18;;
77078;SDS011;66004;55.096;38.760;2023-02-11T04:00:15;12.38;;;4.18;;
77078;SDS011;66004;55.096;38.760;2023-02-11T04:02:41;9.65;;;3.80;;
77078;SDS011;66004;55.096;38.760;2023-02-11T04:05:08;7.40;;;3.28;;
77078;SDS011;66004;55.096;38.760;2023-02-11T04:07:35;11.77;;;3.15;;
77078;SDS011;66004;55.096;38.760;2023-02-11T04:10:01;12.05;;;3.72;;
77078;SDS011;66004;55.096;38.760;2023-02-11T04:12:26;10.35;;;4.00;;
77078;SDS011;66004;55.096;38.760;2023-02-11T04:14:52;7.50;;;3.30;;
77078;SDS011;66004;55.096;38.760;2023-02-11T04:17:17;10.57;;;3.33;;
77078;SDS011;66004;55.096;38.760;2023-02-11T04:19:43;22.85;;;6.43;;
77078;SDS011;66004;55.096;38.760;2023-02-11T04:22:08;38.45;;;10.25;;
77078;SDS011;66004;55.096;38.760;2023-02-11T04:24:34;22.90;;;6.53;;
77078;SDS011;66004;55.096;38.760;2023-02-11T04:27:00;17.00;;;4.68;;
77078;SDS011;66004;55.096;38.760;2023-02-11T04:29:25;17.15;;;5.55;;
77078;SDS011;66004;55.096;38.760;2023-02-11T04:31:52;14.15;;;5.35;;
77078;SDS011;66004;55.096;38.760;2023-02-11T04:34:18;12.93;;;5.05;;
77078;SDS011;66004;55.096;38.760;2023-02-11T04:36:44;11.98;;;4.55;;
77078;SDS011;66004;55.096;38.760;2023-02-11T04:39:09;13.85;;;5.20;;
77078;SDS011;66004;55.096;38.760;2023-02-11T04:41:35;11.57;;;4.38;;
77078;SDS011;66004;55.096;38.760;2023-02-11T04:44:00;10.07;;;4.22;;
77078;SDS011;66004;55.096;38.760;2023-02-11T04:46:26;12.57;;;4.22;;
77078;SDS011;66004;55.096;38.760;2023-02-11T04:48:51;10.35;;;4.47;;
77078;SDS011;66004;55.096;38.760;2023-02-11T04:51:17;14.75;;;4.60;;
77078;SDS011;66004;55.096;38.760;2023-02-11T04:53:42;9.23;;;4.13;;
77078;SDS011;66004;55.096;38.760;2023-02-11T04:56:08;8.40;;;3.53;;
77078;SDS011;66004;55.096;38.760;2023-02-11T04:58:33;9.85;;;4.18;;
77078;SDS011;66004;55.096;38.760;2023-02-11T05:01:09;11.13;;;4.03;;
77078;SDS011;66004;55.096;38.760;2023-02-11T05:03:37;12.52;;;3.83;;
77078;SDS011;66004;55.096;38.760;2023-02-11T05:06:03;9.30;;;3.83;;
77078;SDS011;66004;55.096;38.760;2023-02-11T05:08:29;11.20;;;3.35;;
77078;SDS011;66004;55.096;38.760;2023-02-11T05:10:54;12.05;;;3.97;;
77078;SDS011;66004;55.096;38.760;2023-02-11T05:13:20;10.95;;;3.63;;
77078;SDS011;66004;55.096;38.760;2023-02-11T05:15:46;9.82;;;4.00;;
77078;SDS011;66004;55.096;38.760;2023-02-11T05:18:11;11.77;;;4.30;;
77078;SDS011;66004;55.096;38.760;2023-02-11T05:20:39;10.23;;;4.10;;
77078;SDS011;66004;55.096;38.760;2023-02-11T05:25:30;10.90;;;3.92;;
77078;SDS011;66004;55.096;38.760;2023-02-11T05:27:56;15.27;;;6.00;;
77078;SDS011;66004;55.096;38.760;2023-02-11T05:30:21;8.98;;;3.10;;
77078;SDS011;66004;55.096;38.760;2023-02-11T05:32:47;9.15;;;4.05;;
77078;SDS011;66004;55.096;38.760;2023-02-11T05:35:12;12.25;;;5.00;;
77078;SDS011;66004;55.096;38.760;2023-02-11T05:37:38;12.18;;;3.92;;
77078;SDS011;66004;55.096;38.760;2023-02-11T05:40:04;7.90;;;3.55;;
77078;SDS011;66004;55.096;38.760;2023-02-11T05:42:30;16.33;;;4.55;;
77078;SDS011;66004;55.096;38.760;2023-02-11T05:44:55;9.88;;;4.35;;
77078;SDS011;66004;55.096;38.760;2023-02-11T05:47:21;11.50;;;4.20;;
77078;SDS011;66004;55.096;38.760;2023-02-11T05:49:46;13.13;;;4.35;;
77078;SDS011;66004;55.096;38.760;2023-02-11T05:52:12;8.10;;;3.92;;
77078;SDS011;66004;55.096;38.760;2023-02-11T05:54:37;10.10;;;4.07;;
77078;SDS011;66004;55.096;38.760;2023-02-11T05:57:03;12.10;;;3.92;;
77078;SDS011;66004;55.096;38.760;2023-02-11T05:59:28;12.82;;;4.20;;
77078;SDS011;66004;55.096;38.760;2023-02-11T06:01:54;10.20;;;3.38;;
77078;SDS011;66004;55.096;38.760;2023-02-11T06:04:19;8.55;;;4.13;;
77078;SDS011;66004;55.096;38.760;2023-02-11T06:06:45;5.47;;;2.95;;
77078;SDS011;66004;55.096;38.760;2023-02-11T06:09:11;8.45;;;3.42;;
77078;SDS011;66004;55.096;38.760;2023-02-11T06:11:37;10.45;;;3.55;;
77078;SDS011;66004;55.096;38.760;2023-02-11T06:14:02;8.68;;;3.55;;
77078;SDS011;66004;55.096;38.760;2023-02-11T06:16:28;8.38;;;3.45;;
77078;SDS011;66004;55.096;38.760;2023-02-11T06:18:54;10.63;;;4.05;;
77078;SDS011;66004;55.096;38.760;2023-02-11T06:21:19;10.68;;;3.47;;
77078;SDS011;66004;55.096;38.760;2023-02-11T06:23:45;14.57;;;3.53;;
77078;SDS011;66004;55.096;38.760;2023-02-11T06:26:14;9.75;;;3.90;;
77078;SDS011;66004;55.096;38.760;2023-02-11T06:28:42;10.27;;;3.97;;
77078;SDS011;66004;55.096;38.760;2023-02-11T06:31:07;11.23;;;3.75;;
77078;SDS011;66004;55.096;38.760;2023-02-11T06:33:34;6.65;;;2.42;;
77078;SDS011;66004;55.096;38.760;2023-02-11T06:35:59;11.93;;;4.45;;
77078;SDS011;66004;55.096;38.760;2023-02-11T06:38:25;10.95;;;4.07;;
77078;SDS011;66004;55.096;38.760;2023-02-11T06:40:51;12.52;;;3.67;;
77078;SDS011;66004;55.096;38.760;2023-02-11T06:43:16;11.25;;;4.03;;
77078;SDS011;66004;55.096;38.760;2023-02-11T06:45:42;17.88;;;4.88;;
77078;SDS011;66004;55.096;38.760;2023-02-11T06:48:08;15.98;;;5.32;;
77078;SDS011;66004;55.096;38.760;2023-02-11T06:50:33;18.73;;;6.00;;
77078;SDS011;66004;55.096;38.760;2023-02-11T06:52:59;13.10;;;4.75;;
77078;SDS011;66004;55.096;38.760;2023-02-11T06:55:25;17.38;;;5.93;;
77078;SDS011;66004;55.096;38.760;2023-02-11T06:57:50;16.23;;;4.53;;
77078;SDS011;66004;55.096;38.760;2023-02-11T07:00:16;13.05;;;4.40;;
77078;SDS011;66004;55.096;38.760;2023-02-11T07:02:42;13.07;;;3.85;;
77078;SDS011;66004;55.096;38.760;2023-02-11T07:05:07;14.60;;;4.45;;
77078;SDS011;66004;55.096;38.760;2023-02-11T07:07:33;11.07;;;3.83;;
77078;SDS011;66004;55.096;38.760;2023-02-11T07:09:59;12.00;;;4.38;;
77078;SDS011;66004;55.096;38.760;2023-02-11T07:12:27;12.50;;;3.88;;
77078;SDS011;66004;55.096;38.760;2023-02-11T07:14:52;7.40;;;4.10;;
77078;SDS011;66004;55.096;38.760;2023-02-11T07:17:18;9.32;;;3.35;;
77078;SDS011;66004;55.096;38.760;2023-02-11T07:19:43;10.35;;;3.85;;
77078;SDS011;66004;55.096;38.760;2023-02-11T07:22:09;12.95;;;3.88;;
77078;SDS011;66004;55.096;38.760;2023-02-11T07:24:34;12.70;;;4.05;;
77078;SDS011;66004;55.096;38.760;2023-02-11T07:27:00;13.88;;;4.43;;
77078;SDS011;66004;55.096;38.760;2023-02-11T07:29:25;15.85;;;5.60;;
77078;SDS011;66004;55.096;38.760;2023-02-11T07:31:51;16.33;;;5.70;;
77078;SDS011;66004;55.096;38.760;2023-02-11T07:34:16;13.88;;;4.50;;
77078;SDS011;66004;55.096;38.760;2023-02-11T07:36:41;9.75;;;4.15;;
77078;SDS011;66004;55.096;38.760;2023-02-11T07:39:09;11.25;;;3.25;;
77078;SDS011;66004;55.096;38.760;2023-02-11T07:41:34;13.98;;;4.20;;
77078;SDS011;66004;55.096;38.760;2023-02-11T07:44:01;12.43;;;4.50;;
77078;SDS011;66004;55.096;38.760;2023-02-11T07:46:27;15.32;;;4.60;;
77078;SDS011;66004;55.096;38.760;2023-02-11T07:48:53;12.35;;;4.75;;
77078;SDS011;66004;55.096;38.760;2023-02-11T07:51:20;12.48;;;4.50;;
77078;SDS011;66004;55.096;38.760;2023-02-11T07:53:48;9.20;;;4.38;;
77078;SDS011;66004;55.096;38.760;2023-02-11T07:56:14;11.50;;;4.75;;
77078;SDS011;66004;55.096;38.760;2023-02-11T07:58:43;10.88;;;4.30;;
77078;SDS011;66004;55.096;38.760;2023-02-11T08:01:10;13.80;;;5.50;;
77078;SDS011;66004;55.096;38.760;2023-02-11T08:03:37;11.50;;;4.80;;
77078;SDS011;66004;55.096;38.760;2023-02-11T08:06:04;13.23;;;4.45;;
77078;SDS011;66004;55.096;38.760;2023-02-11T08:08:30;13.20;;;5.25;;
77078;SDS011;66004;55.096;38.760;2023-02-11T08:10:56;13.68;;;5.28;;
77078;SDS011;66004;55.096;38.760;2023-02-11T08:13:22;11.73;;;5.00;;
77078;SDS011;66004;55.096;38.760;2023-02-11T08:15:48;12.23;;;4.38;;
77078;SDS011;66004;55.096;38.760;2023-02-11T08:18:13;12.27;;;4.40;;
77078;SDS011;66004;55.096;38.760;2023-02-11T08:20:39;12.82;;;4.93;;
77078;SDS011;66004;55.096;38.760;2023-02-11T08:23:05;13.80;;;4.93;;
77078;SDS011;66004;55.096;38.760;2023-02-11T08:25:31;16.52;;;6.40;;
77078;SDS011;66004;55.096;38.760;2023-02-11T08:27:57;11.30;;;4.47;;
77078;SDS011;66004;55.096;38.760;2023-02-11T08:30:23;11.15;;;5.35;;
77078;SDS011;66004;55.096;38.760;2023-02-11T08:32:49;13.35;;;4.50;;
77078;SDS011;66004;55.096;38.760;2023-02-11T08:35:16;9.45;;;4.43;;
77078;SDS011;66004;55.096;38.760;2023-02-11T08:37:41;11.63;;;5.00;;
77078;SDS011;66004;55.096;38.760;2023-02-11T08:40:07;14.27;;;5.18;;
77078;SDS011;66004;55.096;38.760;2023-02-11T08:42:33;12.10;;;4.63;;
77078;SDS011;66004;55.096;38.760;2023-02-11T08:44:58;10.40;;;4.57;;
77078;SDS011;66004;55.096;38.760;2023-02-11T08:47:24;11.95;;;4.68;;
77078;SDS011;66004;55.096;38.760;2023-02-11T09:39:59;15.43;;;4.57;;
77078;SDS011;66004;55.096;38.760;2023-02-11T09:42:36;11.00;;;4.28;;
77078;SDS011;66004;55.096;38.760;2023-02-11T09:45:19;12.68;;;4.10;;
77078;SDS011;66004;55.096;38.760;2023-02-11T09:47:58;13.43;;;4.20;;
77078;SDS011;66004;55.096;38.760;2023-02-11T09:50:28;10.88;;;4.03;;
77078;SDS011;66004;55.096;38.760;2023-02-11T09:53:04;9.15;;;3.45;;
77078;SDS011;66004;55.096;38.760;2023-02-11T09:55:41;11.45;;;4.22;;
77078;SDS011;66004;55.096;38.760;2023-02-11T09:58:13;9.68;;;3.35;;
77078;SDS011;66004;55.096;38.760;2023-02-11T10:06:21;11.05;;;3.50;;
77078;SDS011;66004;55.096;38.760;2023-02-11T10:09:00;11.07;;;3.38;;
77078;SDS011;66004;55.096;38.760;2023-02-11T10:20:18;10.77;;;3.15;;
77078;SDS011;66004;55.096;38.760;2023-02-11T10:22:55;10.52;;;3.03;;
77078;SDS011;66004;55.096;38.760;2023-02-11T10:27:54;9.30;;;3.53;;
77078;SDS011;66004;55.096;38.760;2023-02-11T10:30:31;8.82;;;3.30;;
77078;SDS011;66004;55.096;38.760;2023-02-11T10:35:48;8.35;;;3.47;;
77078;SDS011;66004;55.096;38.760;2023-02-11T10:38:13;10.80;;;4.13;;
77078;SDS011;66004;55.096;38.760;2023-02-11T10:40:39;11.57;;;4.45;;
77078;SDS011;66004;55.096;38.760;2023-02-11T10:43:06;8.15;;;3.10;;
77078;SDS011;66004;55.096;38.760;2023-02-11T10:45:37;7.72;;;3.40;;
77078;SDS011;66004;55.096;38.760;2023-02-11T10:48:34;9.75;;;3.33;;
77078;SDS011;66004;55.096;38.760;2023-02-11T10:51:06;9.70;;;3.22;;
77078;SDS011;66004;55.096;38.760;2023-02-11T10:53:38;7.30;;;3.05;;
77078;SDS011;66004;55.096;38.760;2023-02-11T10:56:04;6.47;;;3.13;;
77078;SDS011;66004;55.096;38.760;2023-02-11T10:58:33;12.75;;;3.63;;
77078;SDS011;66004;55.096;38.760;2023-02-11T11:01:11;11.88;;;4.13;;
77078;SDS011;66004;55.096;38.760;2023-02-11T11:03:38;7.57;;;3.50;;
77078;SDS011;66004;55.096;38.760;2023-02-11T11:06:11;9.40;;;3.50;;
77078;SDS011;66004;55.096;38.760;2023-02-11T11:08:39;11.85;;;4.28;;
77078;SDS011;66004;55.096;38.760;2023-02-11T11:11:07;10.38;;;4.30;;
77078;SDS011;66004;55.096;38.760;2023-02-11T11:13:42;9.73;;;4.20;;
77078;SDS011;66004;55.096;38.760;2023-02-11T11:16:27;9.32;;;4.03;;
77078;SDS011;66004;55.096;38.760;2023-02-11T11:21:41;13.07;;;4.18;;
77078;SDS011;66004;55.096;38.760;2023-02-11T11:26:57;11.75;;;4.45;;
77078;SDS011;66004;55.096;38.760;2023-02-11T11:34:40;9.55;;;4.00;;
77078;SDS011;66004;55.096;38.760;2023-02-11T11:39:53;11.77;;;3.70;;
77078;SDS011;66004;55.096;38.760;2023-02-11T11:42:25;13.02;;;4.60;;
77078;SDS011;66004;55.096;38.760;2023-02-11T11:45:28;11.65;;;4.60;;
77078;SDS011;66004;55.096;38.760;2023-02-11T11:55:48;10.95;;;4.75;;
77078;SDS011;66004;55.096;38.760;2023-02-11T11:58:22;12.95;;;5.18;;
77078;SDS011;66004;55.096;38.760;2023-02-11T12:00:52;11.32;;;4.55;;
77078;SDS011;66004;55.096;38.760;2023-02-11T12:04:15;13.93;;;4.45;;
77078;SDS011;66004;55.096;38.760;2023-02-11T12:08:55;13.02;;;4.47;;
77078;SDS011;66004;55.096;38.760;2023-02-11T12:27:25;13.60;;;5.40;;
77078;SDS011;66004;55.096;38.760;2023-02-11T12:33:01;11.50;;;4.57;;
77078;SDS011;66004;55.096;38.760;2023-02-11T12:35:42;16.08;;;6.15;;
77078;SDS011;66004;55.096;38.760;2023-02-11T12:43:39;15.27;;;4.57;;
77078;SDS011;66004;55.096;38.760;2023-02-11T12:56:54;14.35;;;5.88;;
77078;SDS011;66004;55.096;38.760;2023-02-11T13:02:25;15.07;;;5.30;;
77078;SDS011;66004;55.096;38.760;2023-02-11T13:04:53;11.93;;;5.53;;
77078;SDS011;66004;55.096;38.760;2023-02-11T13:07:28;13.77;;;5.30;;
77078;SDS011;66004;55.096;38.760;2023-02-11T13:10:04;13.65;;;5.13;;
77078;SDS011;66004;55.096;38.760;2023-02-11T13:12:42;13.65;;;5.60;;
77078;SDS011;66004;55.096;38.760;2023-02-11T13:23:39;14.05;;;5.70;;
77078;SDS011;66004;55.096;38.760;2023-02-11T13:26:18;16.05;;;5.40;;
77078;SDS011;66004;55.096;38.760;2023-02-11T13:28:52;13.43;;;5.53;;
77078;SDS011;66004;55.096;38.760;2023-02-11T13:31:26;12.65;;;5.18;;
77078;SDS011;66004;55.096;38.760;2023-02-11T13:33:54;15.98;;;5.90;;
77078;SDS011;66004;55.096;38.760;2023-02-11T13:36:20;15.77;;;5.25;;
77078;SDS011;66004;55.096;38.760;2023-02-11T13:38:55;13.25;;;5.85;;
77078;SDS011;66004;55.096;38.760;2023-02-11T13:41:28;15.23;;;4.95;;
77078;SDS011;66004;55.096;38.760;2023-02-11T13:44:00;14.05;;;5.75;;
77078;SDS011;66004;55.096;38.760;2023-02-11T13:46:51;14.35;;;5.38;;
77078;SDS011;66004;55.096;38.760;2023-02-11T13:49:29;14.88;;;6.53;;
77078;SDS011;66004;55.096;38.760;2023-02-11T13:52:02;15.63;;;5.38;;
77078;SDS011;66004;55.096;38.760;2023-02-11T13:54:34;14.88;;;5.50;;
77078;SDS011;66004;55.096;38.760;2023-02-11T14:00:00;13.82;;;6.13;;
77078;SDS011;66004;55.096;38.760;2023-02-11T14:02:31;13.00;;;5.78;;
77078;SDS011;66004;55.096;38.760;2023-02-11T14:11:04;12.70;;;4.75;;
77078;SDS011;66004;55.096;38.760;2023-02-11T14:16:12;14.40;;;4.53;;
77078;SDS011;66004;55.096;38.760;2023-02-11T14:23:51;19.05;;;5.72;;
77078;SDS011;66004;55.096;38.760;2023-02-11T14:28:43;19.15;;;5.10;;
77078;SDS011;66004;55.096;38.760;2023-02-11T14:31:33;15.25;;;5.18;;
77078;SDS011;66004;55.096;38.760;2023-02-11T14:34:30;17.30;;;5.43;;
77078;SDS011;66004;55.096;38.760;2023-02-11T14:39:52;19.17;;;5.28;;
77078;SDS011;66004;55.096;38.760;2023-02-11T14:42:24;12.77;;;4.45;;
77078;SDS011;66004;55.096;38.760;2023-02-11T14:44:54;24.77;;;6.40;;
77078;SDS011;66004;55.096;38.760;2023-02-11T14:47:25;17.60;;;6.55;;
77078;SDS011;66004;55.096;38.760;2023-02-11T18:43:36;19.33;;;7.57;;
77078;SDS011;66004;55.096;38.760;2023-02-11T18:46:06;22.63;;;7.78;;
77078;SDS011;66004;55.096;38.760;2023-02-11T18:48:33;22.40;;;7.60;;
77078;SDS011;66004;55.096;38.760;2023-02-11T18:50:58;18.38;;;7.18;;
77078;SDS011;66004;55.096;38.760;2023-02-11T18:53:24;14.40;;;6.07;;
77078;SDS011;66004;55.096;38.760;2023-02-11T18:55:50;18.85;;;7.18;;
77078;SDS011;66004;55.096;38.760;2023-02-11T18:58:16;18.42;;;6.65;;
77078;SDS011;66004;55.096;38.760;2023-02-11T19:00:44;19.67;;;7.43;;
77078;SDS011;66004;55.096;38.760;2023-02-11T19:03:11;16.77;;;7.28;;
77078;SDS011;66004;55.096;38.760;2023-02-11T19:05:43;17.45;;;7.05;;
77078;SDS011;66004;55.096;38.760;2023-02-11T19:08:11;15.90;;;6.68;;
77078;SDS011;66004;55.096;38.760;2023-02-11T19:10:41;18.58;;;6.93;;
77078;SDS011;66004;55.096;38.760;2023-02-11T19:13:11;22.40;;;7.20;;
77078;SDS011;66004;55.096;38.760;2023-02-11T19:15:41;16.75;;;7.10;;
77078;SDS011;66004;55.096;38.760;2023-02-11T19:18:08;15.90;;;6.38;;
77078;SDS011;66004;55.096;38.760;2023-02-11T19:20:33;27.30;;;7.93;;
77078;SDS011;66004;55.096;38.760;2023-02-11T19:22:59;21.02;;;8.07;;
77078;SDS011;66004;55.096;38.760;2023-02-11T19:25:25;18.98;;;5.95;;
77078;SDS011;66004;55.096;38.760;2023-02-11T19:27:51;14.48;;;6.68;;
77078;SDS011;66004;55.096;38.760;2023-02-11T19:30:16;15.63;;;6.63;;
77078;SDS011;66004;55.096;38.760;2023-02-11T19:32:42;18.30;;;7.78;;
77078;SDS011;66004;55.096;38.760;2023-02-11T19:35:07;15.02;;;7.22;;
77078;SDS011;66004;55.096;38.760;2023-02-11T19:37:33;18.20;;;6.85;;
77078;SDS011;66004;55.096;38.760;2023-02-11T19:39:58;21.73;;;7.80;;
77078;SDS011;66004;55.096;38.760;2023-02-11T19:42:24;16.13;;;6.68;;
77078;SDS011;66004;55.096;38.760;2023-02-11T19:44:50;20.50;;;7.03;;
77078;SDS011;66004;55.096;38.760;2023-02-11T19:47:15;18.75;;;6.88;;
77078;SDS011;66004;55.096;38.760;2023-02-11T19:49:41;14.85;;;6.22;;
77078;SDS011;66004;55.096;38.760;2023-02-11T19:52:07;12.55;;;5.75;;
77078;SDS011;66004;55.096;38.760;2023-02-11T19:54:33;17.85;;;7.38;;
77078;SDS011;66004;55.096;38.760;2023-02-11T19:56:58;12.23;;;5.55;;
77078;SDS011;66004;55.096;38.760;2023-02-11T19:59:24;15.60;;;6.90;;
77078;SDS011;66004;55.096;38.760;2023-02-11T20:01:50;11.95;;;5.07;;
77078;SDS011;66004;55.096;38.760;2023-02-11T20:04:17;14.00;;;5.32;;
77078;SDS011;66004;55.096;38.760;2023-02-11T20:06:43;15.90;;;7.43;;
77078;SDS011;66004;55.096;38.760;2023-02-11T20:09:11;18.08;;;6.68;;
77078;SDS011;66004;55.096;38.760;2023-02-11T20:11:37;19.73;;;7.13;;
77078;SDS011;66004;55.096;38.760;2023-02-11T20:14:04;12.85;;;5.70;;
77078;SDS011;66004;55.096;38.760;2023-02-11T20:16:31;16.58;;;5.80;;
77078;SDS011;66004;55.096;38.760;2023-02-11T20:18:57;20.13;;;7.28;;
77078;SDS011;66004;55.096;38.760;2023-02-11T20:21:24;14.40;;;6.20;;
77078;SDS011;66004;55.096;38.760;2023-02-11T20:23:51;14.98;;;6.60;;
77078;SDS011;66004;55.096;38.760;2023-02-11T20:26:22;13.70;;;6.38;;
77078;SDS011;66004;55.096;38.760;2023-02-11T20:28:49;14.02;;;5.78;;
77078;SDS011;66004;55.096;38.760;2023-02-11T20:31:16;17.05;;;6.50;;
77078;SDS011;66004;55.096;38.760;2023-02-11T20:33:42;15.07;;;6.78;;
77078;SDS011;66004;55.096;38.760;2023-02-11T20:36:10;15.93;;;7.18;;
77078;SDS011;66004;55.096;38.760;2023-02-11T20:38:38;17.88;;;6.70;;
77078;SDS011;66004;55.096;38.760;2023-02-11T20:43:31;15.20;;;6.03;;
77078;SDS011;66004;55.096;38.760;2023-02-11T20:46:03;12.40;;;4.90;;
77078;SDS011;66004;55.096;38.760;2023-02-11T20:48:30;20.73;;;7.20;;
